Time;durP1;ratioP1;P1;durP2;ratioP2;P2;SDS_P1;SDS_P2;PMS_P1;PMS_P2;Temp;Humidity;BMP_temperature;BMP_pressure;BME280_temperature;BME280_humidity;BME280_pressure;Samples;Min_cycle;Max_cycle;Signal;HPM_P1;HPM_P2
2021/10/10 00:01:20;;;;;;;47.08;27.02;;;12.20;82.20;;;;;;5088382;28;20048;-71
2021/10/10 00:03:46;;;;;;;56.80;31.58;;;12.10;81.30;;;;;;5085606;28;20428;-72
2021/10/10 00:06:12;;;;;;;53.92;29.15;;;12.20;84.20;;;;;;5085348;28;20020;-72
2021/10/10 00:08:38;;;;;;;63.28;33.88;;;12.10;82.20;;;;;;5091317;28;20035;-72
2021/10/10 00:11:04;;;;;;;64.85;34.88;;;12.10;83.00;;;;;;5094929;28;20468;-72
2021/10/10 00:13:30;;;;;;;69.88;36.10;;;12.10;86.10;;;;;;5086055;28;20027;-72
2021/10/10 00:15:56;;;;;;;61.72;33.10;;;12.10;87.10;;;;;;5093377;28;20078;-72
2021/10/10 00:18:21;;;;;;;54.53;32.25;;;12.10;86.20;;;;;;5095124;28;20108;-72
2021/10/10 00:20:47;;;;;;;55.40;30.63;;;12.00;85.50;;;;;;5099375;28;20062;-72
2021/10/10 00:23:14;;;;;;;62.13;32.35;;;12.00;86.10;;;;;;5091347;28;20055;-72
2021/10/10 00:25:39;;;;;;;64.40;35.40;;;12.00;86.60;;;;;;5087444;28;20029;-72
2021/10/10 00:28:05;;;;;;;63.75;36.45;;;12.00;87.50;;;;;;5088516;28;20513;-72
2021/10/10 00:30:31;;;;;;;67.93;36.60;;;12.00;88.30;;;;;;5081279;28;20021;-72
2021/10/10 00:32:57;;;;;;;65.50;35.97;;;12.00;89.10;;;;;;5090411;28;20047;-72
2021/10/10 00:35:23;;;;;;;69.75;36.38;;;12.00;89.00;;;;;;5088531;28;20044;-72
2021/10/10 00:37:49;;;;;;;62.85;33.60;;;12.00;88.40;;;;;;5080143;28;20032;-72
2021/10/10 00:40:15;;;;;;;60.05;34.63;;;11.90;87.10;;;;;;5086378;28;20028;-72
2021/10/10 00:42:41;;;;;;;58.63;33.85;;;11.90;86.40;;;;;;5087064;28;20028;-72
2021/10/10 00:45:08;;;;;;;55.25;30.30;;;11.90;86.60;;;;;;5089758;28;20475;-72
2021/10/10 00:47:36;;;;;;;61.88;32.78;;;11.80;84.60;;;;;;5093254;28;20020;-72
2021/10/10 00:50:02;;;;;;;66.78;36.38;;;11.80;85.60;;;;;;5080473;28;20028;-72
2021/10/10 00:52:29;;;;;;;58.45;33.17;;;11.80;87.90;;;;;;5086377;28;20031;-72
2021/10/10 00:54:56;;;;;;;54.60;33.13;;;11.80;88.10;;;;;;5090977;28;20032;-72
2021/10/10 00:57:24;;;;;;;68.13;35.90;;;11.70;86.60;;;;;;5086620;28;20016;-72
2021/10/10 00:59:53;;;;;;;58.72;32.83;;;11.80;88.30;;;;;;5089129;28;20024;-72
2021/10/10 01:02:19;;;;;;;63.40;37.38;;;11.80;88.90;;;;;;5095427;28;20051;-72
2021/10/10 01:04:44;;;;;;;63.50;34.05;;;11.80;89.40;;;;;;5086693;28;20031;-72
2021/10/10 01:07:10;;;;;;;61.53;34.45;;;11.80;89.90;;;;;;5086704;28;20020;-72
2021/10/10 01:09:37;;;;;;;58.35;33.70;;;11.70;90.00;;;;;;5095481;28;20024;-72
2021/10/10 01:12:05;;;;;;;54.28;32.00;;;11.70;89.30;;;;;;5097086;28;20516;-72
2021/10/10 01:14:33;;;;;;;48.22;30.52;;;11.70;88.20;;;;;;5081614;28;20089;-71
2021/10/10 01:16:59;;;;;;;51.28;31.52;;;11.70;88.50;;;;;;5088231;28;20025;-72
2021/10/10 01:19:28;;;;;;;49.75;30.05;;;11.60;87.90;;;;;;5084124;28;20405;-72
2021/10/10 01:21:56;;;;;;;46.08;27.73;;;11.60;87.70;;;;;;5083535;28;20070;-72
2021/10/10 01:24:22;;;;;;;44.83;27.77;;;11.60;85.80;;;;;;5076413;28;20398;-71
2021/10/10 01:26:48;;;;;;;45.78;27.38;;;11.50;86.30;;;;;;5082341;28;20107;-72
2021/10/10 01:29:13;;;;;;;52.70;30.17;;;11.50;85.90;;;;;;5088197;28;20028;-72
2021/10/10 01:31:39;;;;;;;56.83;30.95;;;11.50;87.00;;;;;;5077557;28;20104;-72
2021/10/10 01:34:05;;;;;;;53.25;29.58;;;11.50;87.40;;;;;;5097941;28;20085;-72
2021/10/10 01:36:34;;;;;;;50.03;28.20;;;11.50;87.20;;;;;;5081047;28;20045;-72
2021/10/10 01:39:00;;;;;;;52.97;30.08;;;11.40;85.90;;;;;;5085630;28;20463;-72
2021/10/10 01:41:26;;;;;;;49.63;28.60;;;11.40;86.40;;;;;;5079311;28;20024;-72
2021/10/10 01:43:52;;;;;;;56.97;29.55;;;11.40;88.00;;;;;;5077161;28;20035;-72
2021/10/10 01:46:18;;;;;;;59.33;32.20;;;11.40;89.00;;;;;;5089471;28;20024;-72
2021/10/10 01:48:43;;;;;;;57.38;30.90;;;11.40;89.40;;;;;;5086000;28;20452;-72
2021/10/10 01:51:12;;;;;;;45.67;27.38;;;11.40;87.70;;;;;;5085385;28;20029;-72
2021/10/10 01:53:38;;;;;;;46.90;26.58;;;11.40;87.00;;;;;;5076946;28;20043;-72
2021/10/10 01:56:04;;;;;;;56.83;32.08;;;11.30;85.60;;;;;;5087534;28;20020;-71
2021/10/10 01:58:30;;;;;;;53.70;29.98;;;11.30;88.20;;;;;;5087189;28;20035;-72
2021/10/10 02:00:57;;;;;;;54.85;31.73;;;11.30;88.20;;;;;;5082937;28;20033;-74
2021/10/10 02:03:24;;;;;;;52.42;29.35;;;11.30;88.50;;;;;;5086644;28;20039;-72
2021/10/10 02:05:51;;;;;;;49.55;29.55;;;11.30;88.50;;;;;;5091054;28;20032;-71
2021/10/10 02:08:17;;;;;;;49.75;29.63;;;11.30;88.60;;;;;;5091445;28;20176;-72
2021/10/10 02:10:44;;;;;;;50.20;28.05;;;11.30;88.00;;;;;;5083177;28;20513;-71
2021/10/10 02:13:10;;;;;;;53.40;31.67;;;11.30;88.90;;;;;;5078453;28;20016;-70
2021/10/10 02:15:40;;;;;;;44.50;27.30;;;11.30;90.00;;;;;;5083237;28;20034;-71
2021/10/10 02:18:07;;;;;;;53.83;29.40;;;11.20;87.80;;;;;;5077705;28;20107;-70
2021/10/10 02:20:33;;;;;;;57.22;31.17;;;11.30;89.00;;;;;;5090437;28;20020;-71
2021/10/10 02:23:00;;;;;;;57.13;31.75;;;11.30;89.00;;;;;;5080328;28;20055;-71
2021/10/10 02:25:25;;;;;;;51.63;29.85;;;11.30;90.40;;;;;;5094872;28;20073;-72
2021/10/10 02:27:52;;;;;;;49.15;27.95;;;11.30;90.10;;;;;;5078487;28;20029;-72
2021/10/10 02:30:17;;;;;;;50.47;28.70;;;11.20;87.70;;;;;;5087618;28;20024;-74
2021/10/10 02:32:43;;;;;;;55.40;31.45;;;11.20;87.70;;;;;;5085834;28;20031;-71
2021/10/10 02:35:09;;;;;;;61.60;34.10;;;11.20;89.40;;;;;;5093489;28;20055;-71
2021/10/10 02:37:35;;;;;;;59.70;33.05;;;11.30;90.50;;;;;;5094407;28;20012;-71
2021/10/10 02:40:02;;;;;;;53.92;31.20;;;11.30;90.60;;;;;;5092994;28;20494;-72
2021/10/10 02:42:27;;;;;;;51.83;28.45;;;11.40;90.70;;;;;;5086227;28;20039;-71
2021/10/10 02:44:53;;;;;;;50.08;27.67;;;11.30;89.90;;;;;;5086316;28;20403;-71
2021/10/10 02:47:19;;;;;;;54.95;29.17;;;11.30;87.80;;;;;;5076741;28;20024;-71
2021/10/10 02:49:45;;;;;;;49.97;27.23;;;11.30;87.10;;;;;;5088287;28;20398;-71
2021/10/10 02:52:11;;;;;;;53.45;30.75;;;11.30;86.10;;;;;;5093947;28;20479;-71
2021/10/10 02:54:37;;;;;;;55.17;32.40;;;11.30;87.60;;;;;;5088108;28;20031;-73
2021/10/10 02:57:04;;;;;;;50.75;29.27;;;11.30;89.10;;;;;;5079569;28;20021;-71
2021/10/10 02:59:30;;;;;;;46.28;27.15;;;11.30;88.80;;;;;;5097172;28;20075;-71
2021/10/10 03:01:55;;;;;;;46.63;27.42;;;11.30;86.60;;;;;;5098721;28;20490;-71
2021/10/10 03:04:21;;;;;;;40.72;24.70;;;11.30;85.90;;;;;;5088068;28;20028;-71
2021/10/10 03:06:47;;;;;;;44.92;24.75;;;11.30;84.80;;;;;;5099540;28;20022;-71
2021/10/10 03:09:13;;;;;;;41.55;24.10;;;11.30;85.70;;;;;;5097188;28;20067;-72
2021/10/10 03:11:39;;;;;;;46.22;26.90;;;11.30;84.60;;;;;;5100479;28;20090;-72
2021/10/10 03:14:04;;;;;;;45.13;26.77;;;11.40;86.90;;;;;;5100074;28;20047;-71
2021/10/10 03:16:30;;;;;;;44.58;26.48;;;11.50;88.10;;;;;;5094643;28;20017;-71
2021/10/10 03:18:56;;;;;;;45.08;27.98;;;11.40;87.00;;;;;;5091489;28;20032;-71
2021/10/10 03:21:22;;;;;;;49.03;29.88;;;11.50;86.10;;;;;;5100209;28;20031;-71
2021/10/10 03:23:48;;;;;;;48.20;27.25;;;11.50;85.90;;;;;;5099711;28;20028;-71
2021/10/10 03:26:13;;;;;;;46.28;28.20;;;11.60;87.50;;;;;;5100069;28;20020;-71
2021/10/10 03:28:39;;;;;;;46.17;28.88;;;11.60;87.40;;;;;;5098032;28;20048;-71
2021/10/10 03:31:05;;;;;;;49.20;28.38;;;11.60;89.00;;;;;;5093541;28;20032;-71
2021/10/10 03:33:31;;;;;;;47.20;27.35;;;11.70;88.20;;;;;;5097058;28;20390;-71
2021/10/10 03:35:57;;;;;;;43.63;26.67;;;11.70;89.10;;;;;;5099871;28;20044;-71
2021/10/10 03:38:23;;;;;;;51.35;29.15;;;11.70;87.80;;;;;;5098150;28;20028;-72
2021/10/10 03:40:48;;;;;;;50.53;28.63;;;11.70;87.90;;;;;;5097171;28;20056;-72
2021/10/10 03:43:14;;;;;;;48.63;28.13;;;11.70;88.00;;;;;;5102311;28;20047;-72
2021/10/10 03:45:40;;;;;;;40.75;25.90;;;11.70;87.70;;;;;;5100196;28;20600;-72
2021/10/10 03:48:06;;;;;;;43.72;26.50;;;11.70;87.10;;;;;;5098834;28;20028;-72
2021/10/10 03:50:32;;;;;;;42.30;24.25;;;11.70;87.80;;;;;;5093031;28;20061;-71
2021/10/10 03:52:58;;;;;;;48.35;27.92;;;11.60;86.60;;;;;;5095871;28;20035;-72
2021/10/10 03:57:59;;;;;;;47.90;25.25;;;11.60;86.40;;;;;;5088167;28;20105;-71
2021/10/10 04:00:25;;;;;;;41.90;23.88;;;11.50;85.00;;;;;;5083612;28;20048;-73
2021/10/10 04:02:51;;;;;;;43.95;24.73;;;11.50;84.50;;;;;;5096483;28;20074;-71
2021/10/10 04:07:50;;;;;;;37.20;22.50;;;11.40;84.30;;;;;;5082279;28;20455;-72
2021/10/10 04:10:16;;;;;;;42.35;23.17;;;11.40;83.50;;;;;;5079797;28;20430;-71
2021/10/10 04:12:42;;;;;;;38.47;22.13;;;11.50;85.10;;;;;;5081995;28;20055;-71
2021/10/10 04:15:08;;;;;;;42.63;23.63;;;11.50;84.30;;;;;;5080354;28;20016;-72
2021/10/10 04:17:34;;;;;;;40.78;22.73;;;11.50;84.30;;;;;;5091115;28;20487;-71
2021/10/10 04:20:00;;;;;;;37.75;20.75;;;11.50;83.60;;;;;;5080187;28;20534;-72
2021/10/10 04:22:26;;;;;;;43.03;23.25;;;11.60;83.00;;;;;;5081288;28;20028;-73
2021/10/10 04:24:52;;;;;;;36.40;21.48;;;11.50;83.40;;;;;;5079950;28;20021;-72
2021/10/10 04:27:18;;;;;;;40.40;22.52;;;11.50;83.10;;;;;;5081533;28;20079;-74
2021/10/10 04:29:43;;;;;;;45.10;24.77;;;11.50;83.80;;;;;;5079331;28;20025;-74
2021/10/10 04:32:09;;;;;;;40.00;21.67;;;11.50;83.70;;;;;;5098863;28;20032;-74
2021/10/10 04:34:35;;;;;;;39.03;21.83;;;11.50;83.00;;;;;;5100013;28;20050;-74
2021/10/10 04:37:01;;;;;;;35.65;21.23;;;11.50;82.00;;;;;;5091653;28;20503;-75
2021/10/10 04:39:27;;;;;;;36.53;21.33;;;11.40;81.70;;;;;;5080746;28;20093;-75
2021/10/10 04:41:52;;;;;;;35.28;20.98;;;11.40;81.50;;;;;;5085647;28;20032;-74
2021/10/10 04:44:18;;;;;;;38.28;21.33;;;11.40;81.20;;;;;;5101873;28;20030;-74
2021/10/10 04:46:44;;;;;;;29.38;17.60;;;11.40;81.00;;;;;;5099534;28;20050;-75
2021/10/10 04:49:10;;;;;;;34.03;18.67;;;11.40;80.80;;;;;;5086117;28;20031;-74
2021/10/10 04:51:36;;;;;;;31.23;18.60;;;11.50;81.30;;;;;;5086599;28;20024;-74
2021/10/10 04:54:02;;;;;;;33.85;20.10;;;11.50;80.60;;;;;;5081999;28;20027;-74
2021/10/10 04:56:27;;;;;;;37.85;21.33;;;11.50;80.30;;;;;;5084867;28;20024;-75
2021/10/10 04:58:53;;;;;;;37.35;20.73;;;11.60;81.10;;;;;;5085691;28;20059;-74
2021/10/10 05:01:19;;;;;;;42.08;23.55;;;11.60;80.90;;;;;;5087976;28;20030;-74
2021/10/10 05:03:45;;;;;;;36.70;21.15;;;11.60;82.20;;;;;;5082136;28;20546;-74
2021/10/10 05:06:11;;;;;;;39.33;21.75;;;11.60;81.30;;;;;;5094362;28;20020;-74
2021/10/10 05:08:36;;;;;;;39.20;20.45;;;11.70;81.00;;;;;;5088897;28;20596;-74
2021/10/10 05:11:02;;;;;;;44.72;24.35;;;11.70;81.00;;;;;;5096697;28;20032;-74
2021/10/10 05:13:28;;;;;;;54.55;28.35;;;11.80;82.10;;;;;;5098340;28;20019;-74
2021/10/10 05:15:54;;;;;;;51.95;26.33;;;11.80;84.40;;;;;;5090295;28;20069;-74
2021/10/10 05:18:20;;;;;;;53.88;28.00;;;11.80;84.30;;;;;;5085927;28;20383;-74
2021/10/10 05:20:46;;;;;;;52.53;27.38;;;11.80;84.30;;;;;;5092737;28;20051;-74
2021/10/10 05:23:15;;;;;;;52.67;26.38;;;11.80;84.20;;;;;;5089175;28;20012;-75
2021/10/10 05:25:42;;;;;;;52.42;27.52;;;11.80;84.00;;;;;;5094171;28;20082;-74
2021/10/10 05:28:08;;;;;;;55.97;26.75;;;11.70;84.50;;;;;;5096526;28;20028;-74
2021/10/10 05:30:34;;;;;;;52.97;27.40;;;11.70;84.90;;;;;;5096454;28;20065;-75
2021/10/10 05:33:00;;;;;;;56.05;26.65;;;11.70;85.40;;;;;;5090105;28;20016;-75
2021/10/10 05:35:26;;;;;;;52.70;25.42;;;11.70;85.00;;;;;;5096653;28;20067;-74
2021/10/10 05:37:52;;;;;;;46.95;23.55;;;11.70;84.20;;;;;;5097419;28;20069;-74
2021/10/10 05:40:17;;;;;;;49.08;24.30;;;11.70;84.00;;;;;;5095582;28;20084;-74
2021/10/10 05:42:43;;;;;;;50.85;24.90;;;11.70;82.90;;;;;;5095749;28;20517;-74
2021/10/10 05:45:10;;;;;;;43.97;23.50;;;11.70;82.60;;;;;;5101079;28;20023;-74
2021/10/10 05:47:36;;;;;;;45.55;24.00;;;11.70;82.70;;;;;;5091433;28;20104;-75
2021/10/10 05:50:04;;;;;;;48.92;22.92;;;11.70;82.50;;;;;;5091242;28;20060;-74
2021/10/10 05:52:30;;;;;;;40.58;21.63;;;11.70;82.20;;;;;;5097357;28;20467;-74
2021/10/10 05:54:56;;;;;;;46.08;23.08;;;11.70;81.80;;;;;;5083371;28;20028;-75
2021/10/10 05:57:29;;;;;;;47.30;24.15;;;11.70;81.50;;;;;;5092794;28;20522;-74
2021/10/10 06:00:02;;;;;;;51.05;24.45;;;11.80;82.60;;;;;;5097497;28;20056;-74
2021/10/10 06:02:27;;;;;;;;;;;11.80;82.70;;;;;;5086927;28;20024;-74
2021/10/10 06:04:53;;;;;;;50.10;23.42;;;11.80;82.70;;;;;;5087883;28;19904;-74
2021/10/10 06:07:19;;;;;;;49.78;24.98;;;11.90;82.50;;;;;;5090472;28;20028;-74
2021/10/10 06:09:45;;;;;;;51.28;25.52;;;11.90;82.20;;;;;;5096920;28;20048;-74
2021/10/10 06:12:11;;;;;;;46.65;24.58;;;11.90;82.30;;;;;;5097075;28;20036;-74
2021/10/10 06:14:37;;;;;;;50.42;25.83;;;11.90;82.20;;;;;;5094840;28;20059;-74
2021/10/10 06:17:04;;;;;;;53.13;25.25;;;12.00;82.10;;;;;;5087443;28;20013;-74
2021/10/10 06:19:30;;;;;;;51.65;25.55;;;12.00;82.50;;;;;;5091341;28;20081;-74
2021/10/10 06:21:56;;;;;;;53.47;25.77;;;12.00;82.50;;;;;;5092222;28;20025;-74
2021/10/10 06:24:22;;;;;;;51.83;25.77;;;12.00;82.60;;;;;;5095103;28;20027;-74
2021/10/10 06:26:48;;;;;;;48.33;26.33;;;12.00;82.80;;;;;;5095875;28;20024;-74
2021/10/10 06:29:13;;;;;;;50.88;25.02;;;12.10;82.60;;;;;;5097124;28;20031;-75
2021/10/10 06:31:39;;;;;;;50.85;25.65;;;12.10;82.40;;;;;;5097006;28;20032;-74
2021/10/10 06:34:05;;;;;;;56.47;26.10;;;12.10;82.80;;;;;;5093224;28;20384;-75
2021/10/10 06:36:31;;;;;;;54.85;26.58;;;12.10;82.90;;;;;;5094911;28;20051;-75
2021/10/10 06:38:57;;;;;;;50.65;26.27;;;12.10;83.40;;;;;;5098500;28;20078;-74
2021/10/10 06:41:24;;;;;;;50.83;24.48;;;12.10;83.40;;;;;;5085817;28;20028;-74
2021/10/10 06:43:50;;;;;;;47.72;24.08;;;12.20;83.90;;;;;;5104440;28;20020;-74
2021/10/10 06:46:15;;;;;;;47.22;23.20;;;12.10;83.20;;;;;;5101604;28;20036;-75
2021/10/10 06:48:41;;;;;;;50.42;24.20;;;12.10;82.60;;;;;;5102358;28;20169;-75
2021/10/10 06:51:07;;;;;;;48.53;23.42;;;12.20;82.50;;;;;;5096689;28;20024;-74
2021/10/10 06:53:33;;;;;;;47.72;24.02;;;12.20;82.60;;;;;;5100403;28;20364;-74
2021/10/10 06:56:04;;;;;;;47.75;25.90;;;12.20;82.50;;;;;;5100641;28;20115;-75
2021/10/10 06:58:33;;;;;;;50.85;24.10;;;12.20;82.80;;;;;;5100668;28;20103;-75
2021/10/10 07:00:59;;;;;;;45.72;24.15;;;12.30;83.40;;;;;;5099165;28;20028;-75
2021/10/10 07:03:25;;;;;;;49.92;24.13;;;12.30;83.10;;;;;;5085259;28;20457;-75
2021/10/10 07:05:51;;;;;;;45.50;24.70;;;12.40;82.70;;;;;;5095498;28;20036;-74
2021/10/10 07:08:17;;;;;;;48.10;24.77;;;12.30;82.40;;;;;;5098739;28;20032;-75
2021/10/10 07:10:43;;;;;;;49.45;25.33;;;12.40;82.60;;;;;;5097541;28;20035;-74
2021/10/10 07:13:08;;;;;;;46.78;24.92;;;12.40;83.30;;;;;;5100364;28;20023;-74
2021/10/10 07:15:34;;;;;;;48.15;24.30;;;12.50;83.20;;;;;;5100489;28;20031;-75
2021/10/10 07:18:03;;;;;;;40.10;23.15;;;12.50;82.90;;;;;;5089519;28;20021;-75
2021/10/10 07:20:52;;;;;;;44.03;22.45;;;12.50;82.60;;;;;;5084567;28;20016;-75
2021/10/10 07:23:45;;;;;;;45.67;24.13;;;12.60;82.50;;;;;;5100007;28;20020;-75
2021/10/10 07:26:10;;;;;;;46.13;24.02;;;12.60;82.40;;;;;;5088277;28;20024;-74
2021/10/10 07:28:37;;;;;;;41.95;22.08;;;12.70;82.50;;;;;;5099940;28;20031;-74
2021/10/10 07:31:03;;;;;;;45.22;23.88;;;12.70;82.20;;;;;;5091827;28;20024;-74
2021/10/10 07:33:29;;;;;;;45.67;24.60;;;12.70;82.10;;;;;;5099773;28;20016;-74
2021/10/10 07:35:55;;;;;;;50.63;24.73;;;12.80;81.70;;;;;;5099933;28;20044;-74
2021/10/10 07:38:21;;;;;;;44.33;23.85;;;12.80;81.60;;;;;;5099423;28;20024;-73
2021/10/10 07:40:47;;;;;;;46.17;24.00;;;12.80;81.60;;;;;;5088874;28;20118;-75
2021/10/10 07:43:13;;;;;;;42.65;22.95;;;12.80;81.70;;;;;;5098623;28;20027;-77
2021/10/10 07:45:42;;;;;;;46.00;24.13;;;12.90;82.00;;;;;;5099978;28;20028;-75
2021/10/10 07:48:09;;;;;;;41.03;22.30;;;12.90;81.90;;;;;;5098614;28;20074;-74
2021/10/10 07:50:36;;;;;;;40.38;22.85;;;13.00;81.90;;;;;;5097177;28;20394;-75
2021/10/10 07:53:03;;;;;;;45.95;24.25;;;13.00;81.70;;;;;;5099298;28;20016;-75
2021/10/10 07:55:30;;;;;;;43.95;23.02;;;13.10;81.70;;;;;;5099233;28;20144;-74
2021/10/10 07:57:59;;;;;;;41.90;23.60;;;13.20;81.70;;;;;;5099331;28;20019;-74
2021/10/10 08:00:29;;;;;;;45.22;23.55;;;13.30;81.70;;;;;;5090111;28;20025;-75
2021/10/10 08:02:59;;;;;;;45.60;24.17;;;13.40;81.70;;;;;;5086460;28;20032;-74
2021/10/10 08:05:27;;;;;;;40.22;23.67;;;13.40;81.60;;;;;;5088053;28;20089;-75
2021/10/10 08:07:54;;;;;;;45.90;22.88;;;13.50;81.60;;;;;;5083074;28;20134;-75
2021/10/10 08:10:21;;;;;;;44.15;23.67;;;13.60;81.50;;;;;;5083443;28;20081;-74
2021/10/10 08:12:47;;;;;;;43.17;23.13;;;13.60;81.40;;;;;;5082425;28;20021;-75
2021/10/10 08:15:13;;;;;;;41.65;22.92;;;13.70;81.30;;;;;;5090550;28;20020;-74
2021/10/10 08:17:39;;;;;;;39.70;21.73;;;13.70;81.20;;;;;;5097503;28;20478;-75
2021/10/10 08:20:07;;;;;;;43.30;23.50;;;13.80;81.40;;;;;;5089072;28;20027;-75
2021/10/10 08:22:35;;;;;;;42.42;22.92;;;13.80;81.40;;;;;;5077246;28;20080;-75
2021/10/10 08:25:06;;;;;;;39.83;22.50;;;13.90;81.60;;;;;;5083795;28;20082;-74
2021/10/10 08:27:33;;;;;;;46.93;24.57;;;14.00;81.70;;;;;;5078795;28;20030;-75
2021/10/10 08:29:59;;;;;;;47.60;26.15;;;14.10;81.70;;;;;;5078826;28;20021;-75
2021/10/10 08:32:25;;;;;;;42.20;23.42;;;14.30;82.90;;;;;;5084889;28;20058;-75
2021/10/10 08:34:51;;;;;;;42.78;23.52;;;14.30;82.10;;;;;;5084008;28;20032;-75
2021/10/10 08:37:16;;;;;;;44.35;24.58;;;14.40;82.00;;;;;;5078309;28;20166;-75
2021/10/10 08:39:43;;;;;;;42.25;24.92;;;14.60;82.30;;;;;;5078819;28;20483;-74
2021/10/10 08:42:11;;;;;;;42.63;24.85;;;14.70;82.20;;;;;;5081831;28;20028;-75
2021/10/10 08:44:42;;;;;;;45.97;25.25;;;14.80;82.30;;;;;;5086276;28;20047;-75
2021/10/10 08:47:16;;;;;;;44.38;24.95;;;14.90;82.40;;;;;;5078370;28;20094;-75
2021/10/10 08:49:42;;;;;;;45.38;24.52;;;15.10;82.50;;;;;;5079037;28;20028;-75
2021/10/10 08:52:11;;;;;;;39.20;22.30;;;15.20;82.50;;;;;;5076481;28;20476;-75
2021/10/10 08:54:37;;;;;;;44.92;25.55;;;15.40;83.00;;;;;;5079897;28;20018;-75
2021/10/10 08:57:05;;;;;;;42.10;23.10;;;15.60;82.70;;;;;;5078151;28;20024;-75
2021/10/10 08:59:34;;;;;;;38.78;23.48;;;15.70;81.60;;;;;;5078304;28;20063;-74
2021/10/10 09:02:02;;;;;;;43.40;23.98;;;15.80;81.10;;;;;;5087941;28;20020;-75
2021/10/10 09:04:38;;;;;;;39.15;22.35;;;15.70;81.00;;;;;;5089160;28;20043;-75
2021/10/10 09:07:04;;;;;;;35.72;22.27;;;15.80;81.00;;;;;;5076856;28;20044;-75
2021/10/10 09:09:35;;;;;;;35.03;20.55;;;15.80;81.20;;;;;;5076497;28;20028;-75
2021/10/10 09:12:04;;;;;;;39.47;23.63;;;15.80;81.40;;;;;;5077972;28;20028;-74
2021/10/10 09:14:50;;;;;;;36.47;22.48;;;15.90;81.50;;;;;;5079935;28;20270;-75
2021/10/10 09:17:22;;;;;;;39.28;24.35;;;16.00;80.80;;;;;;5097323;28;20026;-75
2021/10/10 09:20:01;;;;;;;42.72;25.08;;;16.10;80.80;;;;;;5077873;28;20024;-75
2021/10/10 09:22:27;;;;;;;40.97;23.50;;;16.10;80.70;;;;;;5078348;28;20075;-74
2021/10/10 09:24:56;;;;;;;43.90;26.30;;;16.20;80.80;;;;;;5077949;28;20103;-75
2021/10/10 09:27:26;;;;;;;42.85;26.38;;;16.20;80.90;;;;;;5077378;28;20020;-75
2021/10/10 09:29:53;;;;;;;46.85;27.13;;;16.30;80.90;;;;;;5077537;28;20430;-75
2021/10/10 09:32:22;;;;;;;44.30;26.30;;;16.30;80.10;;;;;;5082765;28;20024;-75
2021/10/10 09:34:50;;;;;;;41.20;26.27;;;16.40;79.80;;;;;;5085743;28;20071;-74
2021/10/10 09:37:26;;;;;;;45.67;26.58;;;16.40;79.90;;;;;;5089685;28;20042;-74
2021/10/10 09:40:05;;;;;;;47.53;27.30;;;16.50;80.40;;;;;;5077491;28;20490;-75
2021/10/10 09:42:41;;;;;;;45.85;27.83;;;16.70;80.90;;;;;;5079008;28;20036;-75
2021/10/10 09:45:16;;;;;;;47.08;29.20;;;17.00;81.10;;;;;;5077428;28;20028;-75
2021/10/10 09:47:51;;;;;;;51.40;29.60;;;17.30;81.00;;;;;;5078190;28;20025;-74
2021/10/10 09:50:16;;;;;;;49.22;30.05;;;17.70;81.00;;;;;;5078276;28;20119;-75
2021/10/10 09:52:42;;;;;;;45.17;29.42;;;18.00;79.90;;;;;;5077099;28;20499;-75
2021/10/10 09:55:11;;;;;;;48.65;31.23;;;18.20;79.40;;;;;;5077649;28;20510;-75
2021/10/10 09:57:48;;;;;;;46.22;29.90;;;18.40;79.30;;;;;;5077317;28;20024;-75
2021/10/10 10:00:24;;;;;;;44.67;29.67;;;18.60;79.30;;;;;;5077277;28;20021;-75
2021/10/10 10:02:51;;;;;;;50.40;31.65;;;18.90;79.50;;;;;;5091183;28;20020;-75
2021/10/10 10:05:27;;;;;;;44.95;30.48;;;19.20;79.30;;;;;;5084915;28;20429;-75
2021/10/10 10:07:54;;;;;;;51.38;31.60;;;19.50;77.70;;;;;;5087704;28;20093;-75
2021/10/10 10:10:22;;;;;;;50.67;32.55;;;19.70;76.70;;;;;;5077123;28;20033;-75
2021/10/10 10:12:48;;;;;;;48.78;31.58;;;19.80;75.50;;;;;;5076963;28;20020;-75
2021/10/10 10:15:16;;;;;;;50.45;33.25;;;19.90;74.30;;;;;;5077333;28;20017;-75
2021/10/10 10:17:42;;;;;;;48.60;31.42;;;19.90;73.60;;;;;;5087937;28;20029;-75
2021/10/10 10:20:08;;;;;;;51.33;32.75;;;19.90;73.60;;;;;;5077203;28;20099;-75
2021/10/10 10:22:35;;;;;;;48.38;32.42;;;19.90;73.70;;;;;;5076754;28;20445;-75
2021/10/10 10:25:03;;;;;;;54.28;33.63;;;19.90;73.20;;;;;;5077176;28;20048;-75
2021/10/10 10:27:29;;;;;;;54.15;35.58;;;19.90;73.00;;;;;;5077000;28;20104;-75
2021/10/10 10:29:56;;;;;;;52.92;32.95;;;19.80;72.20;;;;;;5075849;28;20504;-75
2021/10/10 10:32:24;;;;;;;50.78;34.28;;;19.70;72.00;;;;;;5082750;28;20027;-75
2021/10/10 10:35:01;;;;;;;52.53;35.63;;;19.60;72.00;;;;;;5084707;28;20017;-75
2021/10/10 10:37:56;;;;;;;59.00;34.75;;;19.50;72.40;;;;;;5078266;28;20020;-75
2021/10/10 10:40:22;;;;;;;51.97;34.13;;;19.40;72.50;;;;;;5069608;28;20123;-75
2021/10/10 10:42:49;;;;;;;55.63;34.97;;;19.30;72.80;;;;;;5087640;28;20060;-75
2021/10/10 10:45:19;;;;;;;56.10;35.65;;;19.30;72.60;;;;;;5076717;28;20461;-75
2021/10/10 10:47:47;;;;;;;55.70;35.85;;;19.20;72.00;;;;;;5077387;28;20028;-75
2021/10/10 10:50:14;;;;;;;54.60;36.30;;;19.10;72.60;;;;;;5087283;28;20029;-75
2021/10/10 10:52:42;;;;;;;56.90;35.20;;;19.10;73.10;;;;;;5076429;28;20083;-75
2021/10/10 10:55:20;;;;;;;56.88;35.80;;;19.20;73.40;;;;;;5076502;28;20017;-75
2021/10/10 10:57:57;;;;;;;52.65;34.40;;;19.50;73.20;;;;;;5076873;28;20104;-75
2021/10/10 11:00:26;;;;;;;49.08;32.85;;;19.80;73.00;;;;;;5077617;28;20032;-76
2021/10/10 11:03:02;;;;;;;51.55;35.28;;;19.80;71.80;;;;;;5091251;28;20085;-76
2021/10/10 11:05:47;;;;;;;49.50;31.30;;;19.70;71.30;;;;;;5075923;28;20089;-75
2021/10/10 11:08:18;;;;;;;50.63;34.03;;;19.60;71.10;;;;;;5076470;28;20402;-75
2021/10/10 11:11:19;;;;;;;51.90;32.88;;;19.50;69.80;;;;;;5094758;28;20036;-75
2021/10/10 11:14:03;;;;;;;50.47;32.55;;;19.30;70.70;;;;;;5094982;28;20490;-76
2021/10/10 11:16:41;;;;;;;55.13;35.03;;;19.20;72.00;;;;;;5095866;28;20130;-75
2021/10/10 11:19:12;;;;;;;51.15;34.17;;;19.30;72.30;;;;;;5078487;28;20502;-76
2021/10/10 11:21:40;;;;;;;48.72;32.17;;;19.50;71.50;;;;;;5079997;28;20021;-76
2021/10/10 11:24:19;;;;;;;48.58;31.65;;;19.70;71.50;;;;;;5080532;28;20047;-76
2021/10/10 11:26:47;;;;;;;49.42;32.53;;;19.90;71.90;;;;;;5088357;28;20061;-76
2021/10/10 11:29:15;;;;;;;48.40;29.63;;;20.30;72.60;;;;;;5086815;28;20024;-76
2021/10/10 11:31:42;;;;;;;45.00;30.38;;;20.50;70.20;;;;;;5078343;28;20038;-76
2021/10/10 11:34:11;;;;;;;48.08;31.05;;;20.60;70.00;;;;;;5078562;28;20434;-76
2021/10/10 11:36:46;;;;;;;46.15;28.60;;;20.60;69.50;;;;;;5079246;28;20041;-76
2021/10/10 11:39:15;;;;;;;41.28;27.75;;;20.60;70.70;;;;;;5079779;28;20017;-76
2021/10/10 11:41:47;;;;;;;46.90;31.25;;;20.90;71.40;;;;;;5081666;28;20024;-76
2021/10/10 11:44:15;;;;;;;47.33;30.10;;;21.30;71.40;;;;;;5085789;28;20062;-76
2021/10/10 11:46:55;;;;;;;43.22;29.70;;;21.40;70.50;;;;;;5085272;28;20028;-76
2021/10/10 11:49:45;;;;;;;47.00;30.05;;;21.30;68.80;;;;;;5081441;28;20028;-77
2021/10/10 11:52:27;;;;;;;46.03;30.10;;;21.20;69.00;;;;;;5086543;28;20115;-72
2021/10/10 11:57:42;;;;;;;42.70;28.35;;;20.70;67.70;;;;;;5078864;28;20656;-74
2021/10/10 12:00:22;;;;;;;38.83;27.33;;;20.50;68.00;;;;;;5078932;28;20028;-75
2021/10/10 12:02:49;;;;;;;41.05;28.38;;;20.40;68.10;;;;;;5091103;28;20048;-76
2021/10/10 12:05:25;;;;;;;42.63;28.85;;;20.30;68.10;;;;;;5088329;28;20032;-74
2021/10/10 12:07:55;;;;;;;44.97;29.35;;;20.20;67.80;;;;;;5091597;28;20027;-74
2021/10/10 12:10:23;;;;;;;42.67;28.48;;;20.00;67.90;;;;;;5079649;28;20055;-73
2021/10/10 12:12:53;;;;;;;38.63;26.88;;;19.90;68.20;;;;;;5083957;28;20021;-75
2021/10/10 12:15:22;;;;;;;42.40;27.83;;;19.90;68.80;;;;;;5084882;28;20025;-75
2021/10/10 12:17:57;;;;;;;45.65;31.02;;;20.00;69.10;;;;;;5084668;28;20044;-75
2021/10/10 12:20:26;;;;;;;42.25;28.17;;;20.00;67.90;;;;;;5086259;28;20115;-76
2021/10/10 12:22:57;;;;;;;40.17;27.80;;;20.00;68.70;;;;;;5087152;28;20107;-75
2021/10/10 12:25:37;;;;;;;42.58;27.73;;;20.00;69.30;;;;;;5085566;28;20036;-76
2021/10/10 12:28:14;;;;;;;39.78;26.85;;;20.30;69.20;;;;;;5080720;28;20031;-76
2021/10/10 12:30:50;;;;;;;41.85;27.38;;;20.50;69.10;;;;;;5087980;28;20390;-75
2021/10/10 12:33:24;;;;;;;42.72;26.90;;;20.80;67.90;;;;;;5083516;28;20033;-75
2021/10/10 12:35:58;;;;;;;41.38;27.98;;;21.00;66.70;;;;;;5081381;28;20507;-75
2021/10/10 12:38:39;;;;;;;43.15;26.02;;;21.00;66.10;;;;;;5078659;28;20089;-76
2021/10/10 12:41:20;;;;;;;44.05;28.75;;;21.00;66.20;;;;;;5082949;28;20021;-75